sensor_id;sensor_type;location;lat;lon;timestamp;pressure;altitude;pressure_sealevel;temperature;humidity
34979;BME280;21185;50.978;13.720;2023-02-18T00:00:35;98418.13;;;9.98;80.18
34979;BME280;21185;50.978;13.720;2023-02-18T00:05:37;98408.56;;;9.99;80.29
34979;BME280;21185;50.978;13.720;2023-02-18T00:10:40;98410.84;;;10.02;80.18
34979;BME280;21185;50.978;13.720;2023-02-18T00:16:03;98411.66;;;10.02;80.57
34979;BME280;21185;50.978;13.720;2023-02-18T00:21:07;98414.91;;;10.04;80.77
34979;BME280;21185;50.978;13.720;2023-02-18T00:26:13;98419.13;;;10.05;80.89
34979;BME280;21185;50.978;13.720;2023-02-18T00:31:38;98416.38;;;10.07;80.86
34979;BME280;21185;50.978;13.720;2023-02-18T00:36:42;98417.34;;;10.06;80.83
34979;BME280;21185;50.978;13.720;2023-02-18T00:41:44;98415.72;;;10.05;80.85
34979;BME280;21185;50.978;13.720;2023-02-18T00:46:51;98417.50;;;10.04;81.00
34979;BME280;21185;50.978;13.720;2023-02-18T00:51:54;98422.69;;;10.04;80.92
34979;BME280;21185;50.978;13.720;2023-02-18T00:56:59;98411.50;;;10.04;80.85
34979;BME280;21185;50.978;13.720;2023-02-18T01:02:03;98419.28;;;10.04;80.56
34979;BME280;21185;50.978;13.720;2023-02-18T01:07:08;98420.25;;;10.03;80.36
34979;BME280;21185;50.978;13.720;2023-02-18T01:12:11;98422.19;;;10.01;79.81
34979;BME280;21185;50.978;13.720;2023-02-18T01:17:13;98424.94;;;9.99;79.68
34979;BME280;21185;50.978;13.720;2023-02-18T01:22:14;98436.44;;;9.97;79.08
34979;BME280;21185;50.978;13.720;2023-02-18T01:27:16;98428.00;;;9.95;78.59
34979;BME280;21185;50.978;13.720;2023-02-18T01:32:18;98430.75;;;9.93;78.09
34979;BME280;21185;50.978;13.720;2023-02-18T01:37:20;98421.50;;;9.91;77.82
34979;BME280;21185;50.978;13.720;2023-02-18T01:42:27;98424.41;;;9.88;77.17
34979;BME280;21185;50.978;13.720;2023-02-18T01:47:33;98416.13;;;9.84;76.72
34979;BME280;21185;50.978;13.720;2023-02-18T01:52:35;98421.75;;;9.80;76.40
34979;BME280;21185;50.978;13.720;2023-02-18T01:57:37;98422.88;;;9.77;75.74
34979;BME280;21185;50.978;13.720;2023-02-18T02:02:45;98404.38;;;9.72;75.61
34979;BME280;21185;50.978;13.720;2023-02-18T02:07:48;98417.19;;;9.73;75.51
34979;BME280;21185;50.978;13.720;2023-02-18T02:13:14;98418.59;;;9.68;75.35
34979;BME280;21185;50.978;13.720;2023-02-18T02:29:20;98415.81;;;9.61;75.10
34979;BME280;21185;50.978;13.720;2023-02-18T02:39:36;98422.94;;;9.59;74.85
34979;BME280;21185;50.978;13.720;2023-02-18T02:44:45;98423.75;;;9.60;74.71
34979;BME280;21185;50.978;13.720;2023-02-18T02:50:06;98424.84;;;9.57;74.53
34979;BME280;21185;50.978;13.720;2023-02-18T02:55:11;98437.81;;;9.57;74.59
34979;BME280;21185;50.978;13.720;2023-02-18T03:00:24;98431.16;;;9.55;74.70
34979;BME280;21185;50.978;13.720;2023-02-18T03:11:03;98425.16;;;9.54;74.54
34979;BME280;21185;50.978;13.720;2023-02-18T03:21:47;98425.47;;;9.51;74.58
34979;BME280;21185;50.978;13.720;2023-02-18T03:27:03;98432.56;;;9.49;74.60
34979;BME280;21185;50.978;13.720;2023-02-18T03:32:09;98419.78;;;9.48;74.36
34979;BME280;21185;50.978;13.720;2023-02-18T03:37:14;98422.50;;;9.46;74.43
34979;BME280;21185;50.978;13.720;2023-02-18T03:42:17;98423.31;;;9.47;74.45
34979;BME280;21185;50.978;13.720;2023-02-18T03:47:23;98420.75;;;9.47;74.63
34979;BME280;21185;50.978;13.720;2023-02-18T03:52:25;98412.16;;;9.46;74.55
34979;BME280;21185;50.978;13.720;2023-02-18T03:57:27;98418.28;;;9.45;74.64
34979;BME280;21185;50.978;13.720;2023-02-18T04:02:51;98410.84;;;9.42;74.69
34979;BME280;21185;50.978;13.720;2023-02-18T04:07:53;98422.81;;;9.43;74.75
34979;BME280;21185;50.978;13.720;2023-02-18T04:12:55;98426.38;;;9.42;74.87
34979;BME280;21185;50.978;13.720;2023-02-18T04:17:57;98422.16;;;9.41;74.82
34979;BME280;21185;50.978;13.720;2023-02-18T04:22:59;98431.56;;;9.42;74.84
34979;BME280;21185;50.978;13.720;2023-02-18T04:28:01;98438.50;;;9.41;74.58
34979;BME280;21185;50.978;13.720;2023-02-18T04:33:03;98425.56;;;9.41;74.56
34979;BME280;21185;50.978;13.720;2023-02-18T04:38:06;98421.34;;;9.40;74.49
34979;BME280;21185;50.978;13.720;2023-02-18T04:43:09;98423.13;;;9.40;74.19
34979;BME280;21185;50.978;13.720;2023-02-18T04:48:11;98412.09;;;9.38;74.18
34979;BME280;21185;50.978;13.720;2023-02-18T04:53:13;98404.63;;;9.35;74.00
34979;BME280;21185;50.978;13.720;2023-02-18T04:58:15;98409.81;;;9.35;73.84
34979;BME280;21185;50.978;13.720;2023-02-18T05:03:17;98408.03;;;9.35;73.93
34979;BME280;21185;50.978;13.720;2023-02-18T05:08:19;98420.16;;;9.35;73.89
34979;BME280;21185;50.978;13.720;2023-02-18T05:13:21;98415.00;;;9.35;73.95
34979;BME280;21185;50.978;13.720;2023-02-18T05:18:23;98413.38;;;9.34;73.80
34979;BME280;21185;50.978;13.720;2023-02-18T05:23:25;98402.84;;;9.35;73.89
34979;BME280;21185;50.978;13.720;2023-02-18T05:28:28;98392.66;;;9.34;73.94
34979;BME280;21185;50.978;13.720;2023-02-18T05:33:30;98392.94;;;9.31;74.29
34979;BME280;21185;50.978;13.720;2023-02-18T05:38:32;98389.53;;;9.30;74.28
34979;BME280;21185;50.978;13.720;2023-02-18T05:43:34;98383.56;;;9.30;74.60
34979;BME280;21185;50.978;13.720;2023-02-18T05:54:48;98375.28;;;9.26;75.16
34979;BME280;21185;50.978;13.720;2023-02-18T05:59:50;98369.28;;;9.26;75.58
34979;BME280;21185;50.978;13.720;2023-02-18T06:06:06;98370.91;;;9.27;75.97
34979;BME280;21185;50.978;13.720;2023-02-18T06:11:09;98370.91;;;9.27;76.58
34979;BME280;21185;50.978;13.720;2023-02-18T06:16:11;98364.63;;;9.29;76.74
34979;BME280;21185;50.978;13.720;2023-02-18T06:21:24;98367.34;;;9.28;77.16
34979;BME280;21185;50.978;13.720;2023-02-18T06:26:29;98370.91;;;9.27;77.28
34979;BME280;21185;50.978;13.720;2023-02-18T06:31:43;98366.03;;;9.24;77.87
34979;BME280;21185;50.978;13.720;2023-02-18T06:36:47;98368.13;;;9.20;78.25
34979;BME280;21185;50.978;13.720;2023-02-18T06:41:55;98378.78;;;9.17;78.54
34979;BME280;21185;50.978;13.720;2023-02-18T06:46:57;98365.31;;;9.14;78.89
34979;BME280;21185;50.978;13.720;2023-02-18T06:52:01;98362.56;;;9.15;79.05
34979;BME280;21185;50.978;13.720;2023-02-18T06:57:03;98346.06;;;9.16;79.09
34979;BME280;21185;50.978;13.720;2023-02-18T07:02:05;98347.69;;;9.17;79.24
34979;BME280;21185;50.978;13.720;2023-02-18T07:07:09;98354.19;;;9.21;79.03
34979;BME280;21185;50.978;13.720;2023-02-18T07:12:11;98346.94;;;9.25;79.09
34979;BME280;21185;50.978;13.720;2023-02-18T07:17:13;98325.94;;;9.28;79.17
34979;BME280;21185;50.978;13.720;2023-02-18T07:22:16;98342.94;;;9.30;79.07
34979;BME280;21185;50.978;13.720;2023-02-18T07:27:19;98335.00;;;9.32;79.11
34979;BME280;21185;50.978;13.720;2023-02-18T07:32:21;98327.41;;;9.30;79.12
34979;BME280;21185;50.978;13.720;2023-02-18T07:37:23;98308.16;;;9.33;79.17
34979;BME280;21185;50.978;13.720;2023-02-18T07:42:25;98322.41;;;9.37;79.07
34979;BME280;21185;50.978;13.720;2023-02-18T07:48:00;98289.72;;;9.36;79.31
34979;BME280;21185;50.978;13.720;2023-02-18T07:53:00;98288.75;;;9.37;79.21
34979;BME280;21185;50.978;13.720;2023-02-18T07:58:02;98284.91;;;9.41;79.24
34979;BME280;21185;50.978;13.720;2023-02-18T08:03:04;98276.81;;;9.44;79.43
34979;BME280;21185;50.978;13.720;2023-02-18T08:08:14;98277.97;;;9.50;79.43
34979;BME280;21185;50.978;13.720;2023-02-18T08:13:17;98262.94;;;9.53;79.53
34979;BME280;21185;50.978;13.720;2023-02-18T08:18:35;98262.31;;;9.59;79.69
34979;BME280;21185;50.978;13.720;2023-02-18T08:24:02;98244.53;;;9.64;79.78
34979;BME280;21185;50.978;13.720;2023-02-18T08:29:04;98235.78;;;9.65;79.82
34979;BME280;21185;50.978;13.720;2023-02-18T08:34:06;98231.25;;;9.67;79.80
34979;BME280;21185;50.978;13.720;2023-02-18T08:39:10;98217.66;;;9.73;80.13
34979;BME280;21185;50.978;13.720;2023-02-18T08:44:14;98210.22;;;9.79;80.58
34979;BME280;21185;50.978;13.720;2023-02-18T08:49:16;98198.56;;;9.83;80.90
34979;BME280;21185;50.978;13.720;2023-02-18T08:54:24;98193.72;;;9.88;80.85
34979;BME280;21185;50.978;13.720;2023-02-18T08:59:26;98182.06;;;9.92;81.07
34979;BME280;21185;50.978;13.720;2023-02-18T09:04:29;98186.78;;;9.96;81.22
34979;BME280;21185;50.978;13.720;2023-02-18T09:09:31;98169.75;;;10.02;81.35
34979;BME280;21185;50.978;13.720;2023-02-18T09:14:34;98151.63;;;10.10;81.74
34979;BME280;21185;50.978;13.720;2023-02-18T09:19:35;98149.53;;;10.22;81.37
34979;BME280;21185;50.978;13.720;2023-02-18T09:25:03;98144.34;;;10.30;81.66
34979;BME280;21185;50.978;13.720;2023-02-18T09:30:06;98138.69;;;10.34;81.64
34979;BME280;21185;50.978;13.720;2023-02-18T09:35:08;98110.47;;;10.40;81.50
34979;BME280;21185;50.978;13.720;2023-02-18T09:40:33;98116.25;;;10.50;81.67
34979;BME280;21185;50.978;13.720;2023-02-18T09:45:37;98103.25;;;10.58;81.45
34979;BME280;21185;50.978;13.720;2023-02-18T09:50:39;98100.00;;;10.64;81.63
34979;BME280;21185;50.978;13.720;2023-02-18T09:55:42;98097.25;;;10.65;81.56
34979;BME280;21185;50.978;13.720;2023-02-18T10:01:03;98089.13;;;10.68;81.76
34979;BME280;21185;50.978;13.720;2023-02-18T10:06:59;98082.97;;;10.69;81.98
34979;BME280;21185;50.978;13.720;2023-02-18T10:12:18;98077.59;;;10.71;82.39
34979;BME280;21185;50.978;13.720;2023-02-18T10:17:26;98069.34;;;10.67;82.67
34979;BME280;21185;50.978;13.720;2023-02-18T10:22:31;98065.13;;;10.66;83.05
34979;BME280;21185;50.978;13.720;2023-02-18T10:27:37;98060.75;;;10.67;83.35
34979;BME280;21185;50.978;13.720;2023-02-18T10:32:43;98050.84;;;10.70;83.65
34979;BME280;21185;50.978;13.720;2023-02-18T10:39:04;98032.16;;;10.75;84.09
34979;BME280;21185;50.978;13.720;2023-02-18T10:50:17;98023.75;;;10.73;84.24
34979;BME280;21185;50.978;13.720;2023-02-18T10:55:38;97999.25;;;10.76;84.49
34979;BME280;21185;50.978;13.720;2023-02-18T11:00:40;97989.97;;;10.81;84.29
34979;BME280;21185;50.978;13.720;2023-02-18T11:06:31;97975.50;;;10.87;84.72
34979;BME280;21185;50.978;13.720;2023-02-18T11:11:37;97969.78;;;10.91;84.56
34979;BME280;21185;50.978;13.720;2023-02-18T11:16:45;97965.81;;;11.03;84.64
34979;BME280;21185;50.978;13.720;2023-02-18T11:21:47;97929.88;;;11.15;84.43
34979;BME280;21185;50.978;13.720;2023-02-18T11:26:49;97911.81;;;11.22;84.22
34979;BME280;21185;50.978;13.720;2023-02-18T11:31:54;97919.19;;;11.33;83.65
34979;BME280;21185;50.978;13.720;2023-02-18T11:37:17;97910.34;;;11.42;83.36
34979;BME280;21185;50.978;13.720;2023-02-18T11:42:22;97905.59;;;11.46;82.79
34979;BME280;21185;50.978;13.720;2023-02-18T11:47:33;97899.25;;;11.48;82.20
34979;BME280;21185;50.978;13.720;2023-02-18T11:52:38;97895.13;;;11.54;81.79
34979;BME280;21185;50.978;13.720;2023-02-18T11:57:46;97896.75;;;11.55;81.45
34979;BME280;21185;50.978;13.720;2023-02-18T12:02:51;97869.69;;;11.49;81.40
34979;BME280;21185;50.978;13.720;2023-02-18T12:08:13;97890.00;;;11.46;81.38
34979;BME280;21185;50.978;13.720;2023-02-18T12:13:38;97867.97;;;11.42;81.22
34979;BME280;21185;50.978;13.720;2023-02-18T12:29:27;97861.06;;;11.34;80.79
34979;BME280;21185;50.978;13.720;2023-02-18T13:01:45;97855.78;;;11.04;80.39
34979;BME280;21185;50.978;13.720;2023-02-18T13:12:29;97858.19;;;10.91;80.94
34979;BME280;21185;50.978;13.720;2023-02-18T13:17:38;97857.72;;;10.88;80.34
34979;BME280;21185;50.978;13.720;2023-02-18T13:22:42;97848.78;;;10.90;79.94
34979;BME280;21185;50.978;13.720;2023-02-18T13:34:03;97838.97;;;11.00;78.34
34979;BME280;21185;50.978;13.720;2023-02-18T13:39:12;97845.94;;;11.00;77.77
34979;BME280;21185;50.978;13.720;2023-02-18T13:49:25;97846.41;;;10.81;77.42
34979;BME280;21185;50.978;13.720;2023-02-18T13:54:41;97846.13;;;10.76;77.68
34979;BME280;21185;50.978;13.720;2023-02-18T14:00:01;97848.91;;;10.74;77.85
34979;BME280;21185;50.978;13.720;2023-02-18T14:20:42;97847.84;;;10.60;76.54
34979;BME280;21185;50.978;13.720;2023-02-18T14:30:52;97868.84;;;10.51;76.34
34979;BME280;21185;50.978;13.720;2023-02-18T14:36:30;97852.00;;;10.47;76.27
34979;BME280;21185;50.978;13.720;2023-02-18T14:52:32;97879.63;;;10.40;76.36
34979;BME280;21185;50.978;13.720;2023-02-18T14:57:49;97875.59;;;10.37;76.42
34979;BME280;21185;50.978;13.720;2023-02-18T15:02:54;97898.63;;;10.32;76.76
34979;BME280;21185;50.978;13.720;2023-02-18T15:08:01;97895.56;;;10.28;77.11
34979;BME280;21185;50.978;13.720;2023-02-18T15:13:08;97894.63;;;10.21;77.63
34979;BME280;21185;50.978;13.720;2023-02-18T15:18:33;97915.03;;;10.16;78.25
34979;BME280;21185;50.978;13.720;2023-02-18T15:23:38;97906.63;;;10.14;78.58
34979;BME280;21185;50.978;13.720;2023-02-18T15:28:58;97906.78;;;10.13;78.75
34979;BME280;21185;50.978;13.720;2023-02-18T15:34:02;97904.19;;;10.13;78.87
34979;BME280;21185;50.978;13.720;2023-02-18T15:39:05;97910.81;;;10.15;78.62
34979;BME280;21185;50.978;13.720;2023-02-18T15:44:07;97914.06;;;10.17;78.46
34979;BME280;21185;50.978;13.720;2023-02-18T15:49:09;97939.34;;;10.23;78.11
34979;BME280;21185;50.978;13.720;2023-02-18T15:54:21;97942.25;;;10.28;77.32
34979;BME280;21185;50.978;13.720;2023-02-18T15:59:32;97904.63;;;10.32;76.92
34979;BME280;21185;50.978;13.720;2023-02-18T16:04:39;97907.34;;;10.39;76.04
34979;BME280;21185;50.978;13.720;2023-02-18T16:09:48;97912.97;;;10.43;75.67
34979;BME280;21185;50.978;13.720;2023-02-18T16:14:53;97918.63;;;10.46;75.33
34979;BME280;21185;50.978;13.720;2023-02-18T16:19:59;97917.47;;;10.49;75.14
34979;BME280;21185;50.978;13.720;2023-02-18T16:30:15;97934.31;;;10.53;74.99
34979;BME280;21185;50.978;13.720;2023-02-18T16:35:21;97960.44;;;10.51;74.90
34979;BME280;21185;50.978;13.720;2023-02-18T16:40:37;97970.16;;;10.49;75.09
34979;BME280;21185;50.978;13.720;2023-02-18T16:45:44;97970.34;;;10.48;75.08
34979;BME280;21185;50.978;13.720;2023-02-18T16:50:50;97977.31;;;10.47;75.21
34979;BME280;21185;50.978;13.720;2023-02-18T16:56:01;97971.31;;;10.47;75.00
34979;BME280;21185;50.978;13.720;2023-02-18T17:01:04;97969.53;;;10.47;74.89
34979;BME280;21185;50.978;13.720;2023-02-18T17:06:06;97979.91;;;10.47;74.70
34979;BME280;21185;50.978;13.720;2023-02-18T17:17:29;97998.88;;;10.48;74.80
34979;BME280;21185;50.978;13.720;2023-02-18T17:22:33;98005.22;;;10.45;75.15
34979;BME280;21185;50.978;13.720;2023-02-18T17:27:36;98013.50;;;10.41;75.47
34979;BME280;21185;50.978;13.720;2023-02-18T17:32:38;98019.38;;;10.34;75.91
34979;BME280;21185;50.978;13.720;2023-02-18T17:37:41;98021.66;;;10.29;76.24
34979;BME280;21185;50.978;13.720;2023-02-18T17:42:44;98022.97;;;10.25;76.65
34979;BME280;21185;50.978;13.720;2023-02-18T17:48:01;98032.06;;;10.21;76.74
34979;BME280;21185;50.978;13.720;2023-02-18T17:53:04;98035.75;;;10.19;76.79
34979;BME280;21185;50.978;13.720;2023-02-18T17:58:06;98038.50;;;10.17;76.78
34979;BME280;21185;50.978;13.720;2023-02-18T18:03:10;98055.56;;;10.20;76.88
34979;BME280;21185;50.978;13.720;2023-02-18T18:08:12;98064.13;;;10.20;76.93
34979;BME280;21185;50.978;13.720;2023-02-18T18:13:22;98068.34;;;10.21;76.91
34979;BME280;21185;50.978;13.720;2023-02-18T18:18:25;98073.22;;;10.24;76.90
34979;BME280;21185;50.978;13.720;2023-02-18T18:23:30;98073.84;;;10.26;76.68
34979;BME280;21185;50.978;13.720;2023-02-18T18:28:33;98083.91;;;10.29;76.38
34979;BME280;21185;50.978;13.720;2023-02-18T18:33:38;98095.88;;;10.30;76.22
34979;BME280;21185;50.978;13.720;2023-02-18T18:38:42;98103.84;;;10.29;76.60
34979;BME280;21185;50.978;13.720;2023-02-18T18:43:45;98112.91;;;10.25;76.90
34979;BME280;21185;50.978;13.720;2023-02-18T18:48:48;98106.28;;;10.22;77.16
34979;BME280;21185;50.978;13.720;2023-02-18T18:53:50;98113.25;;;10.22;77.33
34979;BME280;21185;50.978;13.720;2023-02-18T18:59:16;98113.41;;;10.20;77.43
34979;BME280;21185;50.978;13.720;2023-02-18T19:04:17;98120.88;;;10.23;77.14
34979;BME280;21185;50.978;13.720;2023-02-18T19:09:20;98131.06;;;10.25;77.06
34979;BME280;21185;50.978;13.720;2023-02-18T19:14:22;98115.34;;;10.26;76.83
34979;BME280;21185;50.978;13.720;2023-02-18T19:19:23;98147.28;;;10.27;76.63
34979;BME280;21185;50.978;13.720;2023-02-18T19:24:31;98120.53;;;10.26;76.58
34979;BME280;21185;50.978;13.720;2023-02-18T19:29:34;98127.66;;;10.24;76.37
34979;BME280;21185;50.978;13.720;2023-02-18T19:34:36;98131.22;;;10.23;76.92
34979;BME280;21185;50.978;13.720;2023-02-18T19:39:52;98129.63;;;10.22;76.72
34979;BME280;21185;50.978;13.720;2023-02-18T19:44:54;98127.31;;;10.19;76.90
34979;BME280;21185;50.978;13.720;2023-02-18T19:50:06;98137.38;;;10.14;77.07
34979;BME280;21185;50.978;13.720;2023-02-18T19:55:22;98139.47;;;10.11;77.22
34979;BME280;21185;50.978;13.720;2023-02-18T20:00:24;98146.59;;;10.09;77.54
34979;BME280;21185;50.978;13.720;2023-02-18T20:05:26;98146.75;;;10.07;77.49
34979;BME280;21185;50.978;13.720;2023-02-18T20:10:28;98139.97;;;10.06;77.71
34979;BME280;21185;50.978;13.720;2023-02-18T20:15:30;98155.50;;;10.06;77.78
34979;BME280;21185;50.978;13.720;2023-02-18T20:20:56;98160.84;;;10.04;78.00
34979;BME280;21185;50.978;13.720;2023-02-18T20:26:08;98162.16;;;10.00;78.24
34979;BME280;21185;50.978;13.720;2023-02-18T20:31:11;98159.06;;;9.97;78.33
34979;BME280;21185;50.978;13.720;2023-02-18T20:37:06;98160.03;;;9.96;78.40
34979;BME280;21185;50.978;13.720;2023-02-18T20:42:08;98172.03;;;9.97;78.50
34979;BME280;21185;50.978;13.720;2023-02-18T20:47:17;98166.19;;;9.95;78.64
34979;BME280;21185;50.978;13.720;2023-02-18T20:52:19;98175.09;;;9.92;78.73
34979;BME280;21185;50.978;13.720;2023-02-18T20:57:21;98180.59;;;9.89;78.73
34979;BME280;21185;50.978;13.720;2023-02-18T21:02:23;98165.38;;;9.86;78.65
34979;BME280;21185;50.978;13.720;2023-02-18T21:07:25;98159.38;;;9.86;78.76
34979;BME280;21185;50.978;13.720;2023-02-18T21:12:28;98154.19;;;9.86;78.56
34979;BME280;21185;50.978;13.720;2023-02-18T21:17:32;98157.75;;;9.85;78.47
34979;BME280;21185;50.978;13.720;2023-02-18T21:22:42;98164.56;;;9.86;78.35
34979;BME280;21185;50.978;13.720;2023-02-18T21:27:46;98164.25;;;9.89;78.37
34979;BME280;21185;50.978;13.720;2023-02-18T21:32:49;98175.25;;;9.91;78.73
34979;BME280;21185;50.978;13.720;2023-02-18T21:37:55;98159.72;;;9.91;78.76
34979;BME280;21185;50.978;13.720;2023-02-18T21:42:58;98175.09;;;9.92;78.83
34979;BME280;21185;50.978;13.720;2023-02-18T21:48:00;98172.34;;;9.94;78.91
34979;BME280;21185;50.978;13.720;2023-02-18T21:53:21;98177.38;;;9.95;78.94
34979;BME280;21185;50.978;13.720;2023-02-18T21:58:23;98162.63;;;9.96;79.01
34979;BME280;21185;50.978;13.720;2023-02-18T22:03:31;98165.22;;;9.96;78.96
34979;BME280;21185;50.978;13.720;2023-02-18T22:08:53;98160.84;;;9.96;78.93
34979;BME280;21185;50.978;13.720;2023-02-18T22:14:22;98161.97;;;9.94;78.86
34979;BME280;21185;50.978;13.720;2023-02-18T22:19:24;98161.34;;;9.92;78.81
34979;BME280;21185;50.978;13.720;2023-02-18T22:24:27;98171.53;;;9.93;78.91
34979;BME280;21185;50.978;13.720;2023-02-18T22:29:33;98175.91;;;9.93;78.92
34979;BME280;21185;50.978;13.720;2023-02-18T22:34:40;98159.72;;;9.91;79.03
34979;BME280;21185;50.978;13.720;2023-02-18T22:39:42;98182.56;;;9.87;79.23
34979;BME280;21185;50.978;13.720;2023-02-18T22:44:44;98180.13;;;9.86;79.32
34979;BME280;21185;50.978;13.720;2023-02-18T22:49:46;98171.53;;;9.85;79.42
34979;BME280;21185;50.978;13.720;2023-02-18T22:54:53;98178.50;;;9.85;79.43
34979;BME280;21185;50.978;13.720;2023-02-18T23:00:01;98167.31;;;9.84;79.51
34979;BME280;21185;50.978;13.720;2023-02-18T23:05:03;98169.91;;;9.84;79.58
34979;BME280;21185;50.978;13.720;2023-02-18T23:10:05;98161.97;;;9.86;79.53
34979;BME280;21185;50.978;13.720;2023-02-18T23:15:08;98161.16;;;9.85;79.42
34979;BME280;21185;50.978;13.720;2023-02-18T23:20:10;98166.19;;;9.87;79.48
34979;BME280;21185;50.978;13.720;2023-02-18T23:25:29;98171.06;;;9.90;79.50
34979;BME280;21185;50.978;13.720;2023-02-18T23:30:32;98169.28;;;9.90;79.18
34979;BME280;21185;50.978;13.720;2023-02-18T23:35:43;98167.50;;;9.91;78.87
34979;BME280;21185;50.978;13.720;2023-02-18T23:40:45;98170.88;;;9.91;79.07
34979;BME280;21185;50.978;13.720;2023-02-18T23:45:57;98157.94;;;9.91;78.79
34979;BME280;21185;50.978;13.720;2023-02-18T23:51:00;98156.16;;;9.92;78.67
